createdAt,value
2023-03-22T00:01:15.277Z,10.00
2023-03-22T00:11:05.016Z,9.90
2023-03-22T00:13:35.309Z,9.80
2023-03-22T00:20:59.477Z,9.80
2023-03-22T00:23:27.067Z,9.60
2023-03-22T00:30:57.629Z,9.90
2023-03-22T00:36:00.325Z,9.80
2023-03-22T00:41:14.618Z,9.80
2023-03-22T00:46:10.361Z,9.80
2023-03-22T00:51:05.580Z,9.80
2023-03-22T01:18:09.139Z,9.80
2023-03-22T01:40:16.012Z,9.70
2023-03-22T01:45:16.819Z,9.60
2023-03-22T01:47:46.145Z,9.60
2023-03-22T01:55:12.157Z,9.90
2023-03-22T01:57:41.979Z,9.40
2023-03-22T02:00:15.952Z,9.30
2023-03-22T02:02:44.517Z,9.40
2023-03-22T02:07:42.241Z,9.40
2023-03-22T02:10:13.874Z,9.30
2023-03-22T02:13:01.130Z,9.30
2023-03-22T02:15:40.987Z,9.30
2023-03-22T02:18:49.169Z,9.30
2023-03-22T02:21:52.606Z,9.30
2023-03-22T02:24:58.875Z,9.20
2023-03-22T02:28:11.753Z,9.20
2023-03-22T02:33:33.758Z,9.20
2023-03-22T02:36:35.750Z,9.10
2023-03-22T02:39:21.233Z,8.90
2023-03-22T02:42:13.000Z,9.10
2023-03-22T02:44:49.456Z,9.10
2023-03-22T02:47:43.433Z,9.00
2023-03-22T02:50:45.064Z,9.10
2023-03-22T02:53:24.601Z,9.00
2023-03-22T02:58:45.756Z,9.00
2023-03-22T03:01:27.304Z,8.70
2023-03-22T03:03:59.294Z,8.90
2023-03-22T03:06:31.118Z,8.70
2023-03-22T03:09:02.817Z,8.80
2023-03-22T03:16:30.817Z,8.70
2023-03-22T03:19:21.189Z,8.70
2023-03-22T03:22:16.499Z,8.70
2023-03-22T03:24:55.783Z,8.70
2023-03-22T03:27:31.275Z,8.60
2023-03-22T03:32:38.405Z,8.60
2023-03-22T03:35:22.271Z,8.60
2023-03-22T03:38:01.468Z,8.50
2023-03-22T03:40:34.092Z,8.50
2023-03-22T03:43:04.490Z,8.40
2023-03-22T03:48:03.928Z,8.30
2023-03-22T03:57:52.708Z,8.00
2023-03-22T04:00:20.369Z,8.10
2023-03-22T04:25:12.806Z,7.80
2023-03-22T04:27:40.944Z,7.80
2023-03-22T04:30:12.809Z,7.60
2023-03-22T07:02:46.863Z,8.10
2023-03-22T07:37:15.073Z,9.10
2023-03-22T07:42:09.618Z,9.60
2023-03-22T07:57:01.831Z,10.30
2023-03-22T08:24:04.096Z,11.30
2023-03-22T08:36:24.917Z,11.70
2023-03-22T08:46:13.676Z,12.30
2023-03-22T08:51:19.336Z,12.30
2023-03-22T08:53:47.667Z,12.30
2023-03-22T08:58:46.627Z,12.50
2023-03-22T09:01:15.164Z,12.60
2023-03-22T09:06:11.140Z,12.60
2023-03-22T09:11:07.965Z,13.00
2023-03-22T09:35:42.778Z,13.80
2023-03-22T09:40:43.541Z,14.10
2023-03-22T09:43:15.566Z,14.20
2023-03-22T09:45:46.487Z,14.30
2023-03-22T09:50:47.043Z,14.50
2023-03-22T09:53:16.291Z,14.60
2023-03-22T09:58:28.786Z,14.90
2023-03-22T10:01:02.782Z,14.80
2023-03-22T10:03:32.527Z,15.10
2023-03-22T10:06:11.761Z,15.00
2023-03-22T10:09:07.545Z,15.30
2023-03-22T10:12:05.795Z,15.40
2023-03-22T10:15:01.766Z,15.40
2023-03-22T10:17:29.851Z,15.50
2023-03-22T10:22:31.436Z,15.70
2023-03-22T10:25:00.134Z,15.80
2023-03-22T10:30:04.028Z,15.60
2023-03-22T10:32:56.813Z,16.00
2023-03-22T10:40:29.748Z,16.20
2023-03-22T10:43:00.995Z,16.20
2023-03-22T10:48:01.992Z,16.20
2023-03-22T10:50:38.117Z,16.30
2023-03-22T10:53:39.131Z,16.40
2023-03-22T10:56:11.309Z,16.40
2023-03-22T11:01:11.663Z,16.50
2023-03-22T11:03:43.677Z,16.60
2023-03-22T11:06:19.625Z,16.80
2023-03-22T11:08:52.110Z,16.70
2023-03-22T11:11:27.955Z,16.80
2023-03-22T11:14:07.927Z,16.90
2023-03-22T11:16:59.543Z,16.90
2023-03-22T11:19:38.059Z,17.10
2023-03-22T11:22:39.721Z,17.10
2023-03-22T11:25:34.431Z,17.00
2023-03-22T11:28:04.362Z,17.30
2023-03-22T11:30:32.723Z,17.00
2023-03-22T11:33:21.887Z,16.90
2023-03-22T11:35:55.909Z,17.30
2023-03-22T11:38:44.936Z,17.10
2023-03-22T11:41:28.425Z,17.20
2023-03-22T11:43:58.500Z,17.30
2023-03-22T11:49:00.831Z,17.10
2023-03-22T11:51:36.286Z,17.20
2023-03-22T11:54:13.046Z,17.30
2023-03-22T11:56:46.944Z,17.50
2023-03-22T12:01:58.858Z,17.60
2023-03-22T12:04:28.479Z,17.70
2023-03-22T12:07:06.456Z,18.00
2023-03-22T12:09:58.972Z,18.00
2023-03-22T12:12:31.322Z,18.00
2023-03-22T12:15:03.901Z,18.00
2023-03-22T12:17:35.343Z,18.10
2023-03-22T12:20:26.905Z,18.10
2023-03-22T12:22:55.210Z,18.20
2023-03-22T12:25:29.049Z,18.20
2023-03-22T12:28:00.434Z,18.00
2023-03-22T12:30:31.367Z,18.10
2023-03-22T12:35:30.329Z,18.10
2023-03-22T12:38:00.270Z,18.20
2023-03-22T12:40:32.222Z,18.30
2023-03-22T12:43:07.894Z,18.10
2023-03-22T12:45:40.405Z,18.20
2023-03-22T12:48:12.509Z,18.10
2023-03-22T12:50:47.288Z,18.10
2023-03-22T12:53:17.571Z,18.30
2023-03-22T12:55:46.265Z,18.30
2023-03-22T12:58:18.284Z,18.30
2023-03-22T13:00:51.072Z,18.40
2023-03-22T13:05:57.563Z,18.30
2023-03-22T13:11:04.417Z,18.40
2023-03-22T13:13:49.687Z,18.50
2023-03-22T13:16:22.558Z,18.50
2023-03-22T13:21:27.575Z,18.40
2023-03-22T13:24:10.140Z,18.70
2023-03-22T13:26:47.599Z,18.30
2023-03-22T13:29:19.007Z,18.40
2023-03-22T13:31:58.530Z,18.50
2023-03-22T13:34:50.614Z,18.30
2023-03-22T13:37:30.352Z,18.70
2023-03-22T13:40:02.305Z,18.50
2023-03-22T13:42:36.603Z,18.50
2023-03-22T13:47:35.316Z,18.70
2023-03-22T13:50:27.585Z,18.70
2023-03-22T13:53:05.912Z,18.70
2023-03-22T13:55:51.834Z,18.80
2023-03-22T13:58:36.546Z,18.60
2023-03-22T14:01:07.073Z,18.80
2023-03-22T14:03:39.086Z,18.80
2023-03-22T14:06:16.139Z,18.90
2023-03-22T14:08:45.792Z,19.00
2023-03-22T14:11:28.773Z,19.00
2023-03-22T14:14:03.914Z,19.00
2023-03-22T14:16:35.696Z,19.00
2023-03-22T14:19:05.128Z,19.10
2023-03-22T14:21:37.226Z,19.10
